createdAt,value
2016-07-29T18:44:14.982Z,995.22
2016-07-29T18:45:15.004Z,995.21
2016-07-29T18:46:15.027Z,995.2
2016-07-29T18:47:15.045Z,995.22
2016-07-29T18:48:15.067Z,995.17
2016-07-29T18:49:15.095Z,995.19
2016-07-29T18:50:15.112Z,995.22
2016-07-29T18:51:15.134Z,995.22
2016-07-29T18:52:15.161Z,995.21
2016-07-29T18:53:15.175Z,995.21
2016-07-29T18:54:15.200Z,995.26
2016-07-29T18:55:15.223Z,995.27
2016-07-29T18:56:15.241Z,995.28
2016-07-29T18:57:15.266Z,995.24
2016-07-29T18:58:15.290Z,995.24
2016-07-29T18:59:15.311Z,995.27
2016-07-29T19:00:15.329Z,995.28
2016-07-29T19:01:15.352Z,995.28
2016-07-29T19:02:15.375Z,995.28
2016-07-29T19:03:15.398Z,995.27
2016-07-29T19:04:15.418Z,995.3
2016-07-29T19:05:15.437Z,995.24
2016-07-29T19:06:15.460Z,995.26
2016-07-29T19:07:15.482Z,995.26
2016-07-29T19:08:15.502Z,995.29
2016-07-29T19:09:15.526Z,995.28
2016-07-29T19:10:15.545Z,995.26
2016-07-29T19:11:15.565Z,995.27
2016-07-29T19:12:15.589Z,995.31
2016-07-29T19:13:15.612Z,995.3
2016-07-29T19:14:15.632Z,995.34
2016-07-29T19:15:15.653Z,995.35
2016-07-29T19:16:15.678Z,995.33
2016-07-29T19:17:15.695Z,995.35
2016-07-29T19:18:15.717Z,995.37
2016-07-29T19:19:15.739Z,995.37
2016-07-29T19:20:15.762Z,995.37
2016-07-29T19:21:15.780Z,995.42
2016-07-29T19:22:15.803Z,995.49
2016-07-29T19:23:15.828Z,995.5
2016-07-29T19:24:15.845Z,995.47
2016-07-29T19:25:15.865Z,995.55
2016-07-29T19:26:15.888Z,995.53
2016-07-29T19:27:15.911Z,995.52
2016-07-29T19:28:15.932Z,995.51
2016-07-29T19:29:15.951Z,995.54
2016-07-29T19:30:15.976Z,995.52
2016-07-29T19:31:15.996Z,995.51
2016-07-29T19:32:16.015Z,995.54
2016-07-29T19:33:16.038Z,995.6
2016-07-29T19:34:16.060Z,995.54
2016-07-29T19:35:16.081Z,995.51
2016-07-29T19:36:16.105Z,995.51
2016-07-29T19:37:16.125Z,995.46
2016-07-29T19:38:16.144Z,995.48
2016-07-29T19:39:16.164Z,995.51
2016-07-29T19:40:16.186Z,995.51
2016-07-29T19:41:16.207Z,995.59
2016-07-29T19:42:16.231Z,995.56
2016-07-29T19:43:16.254Z,995.59
2016-07-29T19:44:16.275Z,995.59
2016-07-29T19:45:16.294Z,995.65
2016-07-29T19:46:16.316Z,995.6
2016-07-29T19:47:16.338Z,995.61
2016-07-29T19:48:16.359Z,995.61
2016-07-29T19:49:16.376Z,995.59
2016-07-29T19:50:16.400Z,995.6
2016-07-29T19:52:16.447Z,995.64
2016-07-29T19:53:16.463Z,995.64
2016-07-29T19:54:16.488Z,995.65
2016-07-29T19:55:16.510Z,995.66
2016-07-29T19:56:16.530Z,995.66
2016-07-29T19:57:16.549Z,995.68
2016-07-29T19:58:16.572Z,995.69
2016-07-29T19:59:16.590Z,995.72
2016-07-29T20:00:16.618Z,995.71
2016-07-29T20:01:16.640Z,995.71
2016-07-29T20:02:16.657Z,995.72
2016-07-29T20:03:16.679Z,995.73
2016-07-29T20:04:16.701Z,995.73
2016-07-29T20:05:16.720Z,995.77
2016-07-29T20:07:16.763Z,995.78
2016-07-29T20:08:16.782Z,995.77
2016-07-29T20:09:16.807Z,995.83
2016-07-29T20:10:16.827Z,995.81
2016-07-29T20:11:16.846Z,995.83
2016-07-29T20:12:16.873Z,995.83
2016-07-29T20:13:16.893Z,995.85
2016-07-29T20:14:16.914Z,995.9
2016-07-29T20:15:16.934Z,995.96
2016-07-29T20:16:16.955Z,996
2016-07-29T20:17:16.976Z,996
2016-07-29T20:18:16.999Z,996.01
2016-07-29T20:19:17.021Z,996.06
2016-07-29T20:20:17.040Z,996.05
2016-07-29T20:22:17.084Z,996.04
2016-07-29T20:23:17.105Z,995.95
2016-07-29T20:24:17.128Z,996.05
2016-07-29T20:25:17.148Z,996.04
2016-07-29T20:26:17.167Z,996.08
2016-07-29T20:27:17.189Z,996.1
2016-07-29T20:28:17.211Z,996.09
2016-07-29T20:29:17.229Z,996.1
2016-07-29T20:30:17.251Z,996.08
2016-07-29T20:31:17.277Z,996.08
2016-07-29T20:32:17.294Z,996.08
2016-07-29T20:33:17.314Z,996.1
2016-07-29T20:34:17.339Z,996.1
2016-07-29T20:35:17.360Z,996.11
2016-07-29T20:36:17.381Z,996.09
2016-07-29T20:37:17.402Z,996.08
2016-07-29T20:38:17.424Z,996.07
2016-07-29T20:39:17.444Z,996.09
2016-07-29T20:40:17.464Z,996.1
2016-07-29T20:41:17.482Z,996.09
2016-07-29T20:42:17.507Z,996.15
2016-07-29T20:43:17.526Z,996.17
2016-07-29T20:44:17.549Z,996.17
2016-07-29T20:45:17.566Z,996.19
2016-07-29T20:46:17.590Z,996.17
2016-07-29T20:47:17.607Z,996.19
2016-07-29T20:48:17.629Z,996.23
2016-07-29T20:49:17.650Z,996.23
2016-07-29T20:50:17.670Z,996.21
2016-07-29T20:51:17.692Z,996.16
2016-07-29T20:52:17.717Z,996.18
2016-07-29T20:53:17.736Z,996.2
2016-07-29T20:54:17.760Z,996.17
2016-07-29T20:55:17.779Z,996.18
2016-07-29T20:56:17.798Z,996.13
2016-07-29T20:57:17.820Z,996.15
2016-07-29T20:58:17.844Z,996.17
2016-07-29T20:59:17.861Z,996.17
2016-07-29T21:00:17.882Z,996.15
2016-07-29T21:01:17.903Z,996.17
2016-07-29T21:02:17.927Z,996.17
2016-07-29T21:03:17.946Z,996.17
2016-07-29T21:04:17.966Z,996.22
2016-07-29T21:05:17.988Z,996.23
2016-07-29T21:06:18.012Z,996.21
2016-07-29T21:07:18.032Z,996.17
2016-07-29T21:08:18.050Z,996.18
2016-07-29T21:09:18.075Z,996.16
2016-07-29T21:10:18.094Z,996.19
2016-07-29T21:11:18.114Z,996.17
2016-07-29T21:12:18.137Z,996.2
2016-07-29T21:13:18.157Z,996.14
2016-07-29T21:14:18.177Z,996.14
2016-07-29T21:15:18.196Z,996.16
2016-07-29T21:16:18.220Z,996.15
2016-07-29T21:17:18.238Z,996.16
2016-07-29T21:18:18.262Z,996.17
2016-07-29T21:19:18.286Z,996.16
2016-07-29T21:20:18.303Z,996.19
2016-07-29T21:21:18.324Z,996.19
2016-07-29T21:22:18.349Z,996.18
2016-07-29T21:23:18.365Z,996.2
2016-07-29T21:24:18.390Z,996.29
2016-07-29T21:25:18.408Z,996.28
2016-07-29T21:26:18.430Z,996.31
2016-07-29T21:27:18.451Z,996.29
2016-07-29T21:28:18.470Z,996.31
2016-07-29T21:29:18.499Z,996.3
2016-07-29T21:30:18.516Z,996.29
2016-07-29T21:31:18.533Z,996.32
2016-07-29T21:32:18.555Z,996.3
2016-07-29T21:33:18.574Z,996.32
2016-07-29T21:34:18.598Z,996.32
2016-07-29T21:35:18.614Z,996.34
2016-07-29T21:36:18.639Z,996.29
2016-07-29T21:37:18.660Z,996.31
2016-07-29T21:38:18.679Z,996.34
2016-07-29T21:39:18.699Z,996.36
2016-07-29T21:40:18.724Z,996.32
2016-07-29T21:41:18.744Z,996.33
2016-07-29T21:42:18.762Z,996.37
2016-07-29T21:43:18.783Z,996.41
2016-07-29T21:44:18.804Z,996.39
2016-07-29T21:45:18.824Z,996.38
2016-07-29T21:46:18.848Z,996.43
2016-07-29T21:47:18.873Z,996.38
2016-07-29T21:48:18.888Z,996.39
2016-07-29T21:49:18.908Z,996.4
2016-07-29T21:50:18.929Z,996.38
2016-07-29T21:51:18.955Z,996.4
2016-07-29T21:52:18.971Z,996.43
2016-07-29T21:53:18.991Z,996.43
2016-07-29T21:54:19.013Z,996.47
2016-07-29T21:55:19.039Z,996.45
2016-07-29T21:56:19.055Z,996.46
2016-07-29T21:57:19.078Z,996.46
2016-07-29T21:58:19.099Z,996.47
2016-07-29T21:59:19.118Z,996.52
2016-07-29T22:00:19.141Z,996.44
2016-07-29T22:01:19.162Z,996.48
2016-07-29T22:02:19.179Z,996.5
2016-07-29T22:03:19.201Z,996.51
2016-07-29T22:04:19.225Z,996.53
2016-07-29T22:05:19.245Z,996.52
2016-07-29T22:06:19.269Z,996.56
2016-07-29T22:07:19.287Z,996.56
2016-07-29T22:08:19.307Z,996.6
2016-07-29T22:09:19.329Z,996.63
2016-07-29T22:10:19.346Z,996.61
2016-07-29T22:11:19.370Z,996.61
2016-07-29T22:12:19.392Z,996.59
2016-07-29T22:13:19.409Z,996.56
2016-07-29T22:14:19.430Z,996.57
2016-07-29T22:15:19.453Z,996.53
2016-07-29T22:16:19.472Z,996.55
2016-07-29T22:17:19.497Z,996.58
2016-07-29T22:18:19.516Z,996.55
2016-07-29T22:19:19.534Z,996.54
2016-07-29T22:20:19.555Z,996.52
2016-07-29T22:21:19.576Z,996.53
2016-07-29T22:22:19.601Z,996.58
2016-07-29T22:23:19.620Z,996.53
2016-07-29T22:24:19.641Z,996.55
2016-07-29T22:25:19.659Z,996.56
2016-07-29T22:26:19.681Z,996.55
2016-07-29T22:27:19.704Z,996.53
2016-07-29T22:28:19.722Z,996.53
2016-07-29T22:29:19.747Z,996.54
2016-07-29T22:30:19.764Z,996.55
2016-07-29T22:31:19.789Z,996.56
2016-07-29T22:32:19.813Z,996.53
2016-07-29T22:33:19.830Z,996.51
2016-07-29T22:34:19.851Z,996.49
2016-07-29T22:35:19.871Z,996.5
2016-07-29T22:36:19.892Z,996.51
2016-07-29T22:37:19.910Z,996.52
2016-07-29T22:38:19.932Z,996.52
2016-07-29T22:39:19.952Z,996.53
2016-07-29T22:40:19.981Z,996.51
2016-07-29T22:41:19.993Z,996.51
2016-07-29T22:42:20.015Z,996.51
2016-07-29T22:43:20.035Z,996.51
2016-07-29T22:44:20.059Z,996.56
2016-07-29T22:45:20.079Z,996.55
2016-07-29T22:46:20.097Z,996.54
2016-07-29T22:47:20.116Z,996.53
2016-07-29T22:48:20.141Z,996.52
2016-07-29T22:49:20.162Z,996.55
2016-07-29T22:50:20.178Z,996.6
2016-07-29T22:51:20.199Z,996.57
2016-07-29T22:52:20.222Z,996.56
2016-07-29T22:53:20.244Z,996.59
2016-07-29T22:54:20.264Z,996.57
2016-07-29T22:55:20.284Z,996.59
2016-07-29T22:56:20.304Z,996.6
2016-07-29T22:57:20.327Z,996.64
2016-07-29T22:58:20.348Z,996.69
2016-07-29T22:59:20.367Z,996.64
2016-07-29T23:00:20.389Z,996.64
2016-07-29T23:01:20.409Z,996.63
2016-07-29T23:02:20.428Z,996.65
2016-07-29T23:03:20.453Z,996.63
2016-07-29T23:04:20.470Z,996.65
2016-07-29T23:05:20.492Z,996.69
2016-07-29T23:06:20.513Z,996.6
2016-07-29T23:07:20.532Z,996.62
2016-07-29T23:08:20.554Z,996.6
2016-07-29T23:09:20.575Z,996.58
2016-07-29T23:10:20.595Z,996.58
2016-07-29T23:11:20.617Z,996.54
2016-07-29T23:12:20.637Z,996.53
2016-07-29T23:13:20.654Z,996.51
2016-07-29T23:14:20.679Z,996.47
2016-07-29T23:15:20.702Z,996.5
2016-07-29T23:16:20.717Z,996.5
2016-07-29T23:17:20.740Z,996.5
2016-07-29T23:18:20.758Z,996.51
2016-07-29T23:19:20.780Z,996.55
2016-07-29T23:20:20.804Z,996.56
2016-07-29T23:21:20.823Z,996.54
2016-07-29T23:22:20.843Z,996.57
2016-07-29T23:23:20.866Z,996.56
2016-07-29T23:24:20.888Z,996.57
2016-07-29T23:25:20.904Z,996.58
2016-07-29T23:26:20.930Z,996.59
2016-07-29T23:27:20.947Z,996.58
2016-07-29T23:28:20.974Z,996.57
2016-07-29T23:29:20.990Z,996.62
2016-07-29T23:30:21.009Z,996.61
2016-07-29T23:31:21.027Z,996.63
2016-07-29T23:32:21.048Z,996.63
2016-07-29T23:33:21.072Z,996.64
2016-07-29T23:34:21.091Z,996.66
2016-07-29T23:35:21.111Z,996.61
2016-07-29T23:36:21.132Z,996.63
2016-07-29T23:37:21.153Z,996.6
2016-07-29T23:38:21.174Z,996.59
2016-07-29T23:39:21.194Z,996.52
2016-07-29T23:40:21.218Z,996.54
2016-07-29T23:41:21.237Z,996.54
2016-07-29T23:42:21.254Z,996.51
2016-07-29T23:43:21.280Z,996.51
2016-07-29T23:44:21.299Z,996.48
2016-07-29T23:45:21.320Z,996.46
2016-07-29T23:46:21.341Z,996.49
2016-07-29T23:47:21.360Z,996.51
2016-07-29T23:48:21.382Z,996.5
2016-07-29T23:49:21.412Z,996.51
2016-07-29T23:50:21.424Z,996.56
2016-07-29T23:51:21.440Z,996.55
2016-07-29T23:52:21.463Z,996.54
2016-07-29T23:53:21.480Z,996.51
2016-07-29T23:54:21.502Z,996.57
2016-07-29T23:55:21.523Z,996.56
2016-07-29T23:56:21.542Z,996.57
2016-07-29T23:57:21.563Z,996.56
2016-07-29T23:58:21.583Z,996.53
2016-07-29T23:59:21.605Z,996.57
